Time;durP1;ratioP1;P1;durP2;ratioP2;P2;SDS_P1;SDS_P2;PMS_P1;PMS_P2;Temp;Humidity;BMP_temperature;BMP_pressure;BME280_temperature;BME280_humidity;BME280_pressure;Samples;Min_cycle;Max_cycle;Signal;HPM_P1;HPM_P2
2022/08/27 00:02:23;;;;;;;;;;;;;;;24.45;51.62;95408.19;10241857;28;2344;-46
2022/08/27 00:07:34;;;;;;;;;;;;;;;24.25;52.03;95414.81;10240909;28;2116;-44
2022/08/27 00:12:44;;;;;;;;;;;;;;;24.21;52.48;95408.56;10244089;28;2075;-47
2022/08/27 00:17:45;;;;;;;;;;;;;;;24.20;52.66;95410.44;10248172;28;2321;-48
2022/08/27 00:22:45;;;;;;;;;;;;;;;24.19;52.77;95414.16;10253854;28;1913;-44
2022/08/27 00:27:45;;;;;;;;;;;;;;;24.14;52.64;95424.09;10248509;28;2065;-50
2022/08/27 00:32:46;;;;;;;;;;;;;;;24.12;52.47;95442.16;10242223;28;1976;-44
2022/08/27 00:37:46;;;;;;;;;;;;;;;23.99;52.78;95446.41;10245153;28;1989;-44
2022/08/27 00:42:46;;;;;;;;;;;;;;;23.86;53.17;95447.28;10239674;28;2152;-45
2022/08/27 00:47:48;;;;;;;;;;;;;;;23.71;53.59;95446.84;10243632;28;2087;-44
2022/08/27 00:52:53;;;;;;;;;;;;;;;23.59;53.98;95439.44;10243117;28;1901;-46
2022/08/27 00:58:01;;;;;;;;;;;;;;;23.54;54.33;95439.56;10240543;28;2064;-47
2022/08/27 01:03:01;;;;;;;;;;;;;;;23.56;54.31;95433.97;10259159;28;2060;-45
2022/08/27 01:08:03;;;;;;;;;;;;;;;23.54;54.30;95423.69;10241163;28;1942;-46
2022/08/27 01:13:05;;;;;;;;;;;;;;;23.54;54.52;95415.75;10242304;28;2065;-45
2022/08/27 01:18:06;;;;;;;;;;;;;;;23.53;54.21;95414.19;10242499;28;2128;-47
2022/08/27 01:23:12;;;;;;;;;;;;;;;23.44;55.01;95408.84;10241339;28;2410;-46
2022/08/27 01:28:13;;;;;;;;;;;;;;;23.43;54.87;95415.19;10256456;28;2005;-48
2022/08/27 01:33:14;;;;;;;;;;;;;;;23.50;54.60;95420.06;10257823;28;1921;-48
2022/08/27 01:38:15;;;;;;;;;;;;;;;23.49;54.41;95418.53;10248244;28;1949;-45
2022/08/27 01:43:15;;;;;;;;;;;;;;;23.49;54.62;95423.81;10239345;28;1991;-47
2022/08/27 01:48:20;;;;;;;;;;;;;;;23.49;54.42;95420.38;10253129;28;2103;-45
2022/08/27 01:53:21;;;;;;;;;;;;;;;23.54;54.20;95426.31;10243258;28;2095;-45
2022/08/27 01:58:25;;;;;;;;;;;;;;;23.59;54.16;95423.56;10248594;28;2060;-47
2022/08/27 02:03:25;;;;;;;;;;;;;;;23.56;54.27;95418.09;10245945;28;2084;-48
2022/08/27 02:08:26;;;;;;;;;;;;;;;23.52;54.36;95411.81;10251800;28;2006;-46
2022/08/27 02:13:26;;;;;;;;;;;;;;;23.48;54.68;95416.94;10248690;28;1981;-47
2022/08/27 02:18:27;;;;;;;;;;;;;;;23.47;54.32;95410.09;10245904;28;1965;-47
2022/08/27 02:23:27;;;;;;;;;;;;;;;23.41;54.39;95406.78;10245169;28;1898;-44
2022/08/27 02:28:27;;;;;;;;;;;;;;;23.38;54.80;95403.94;10253295;28;1894;-46
2022/08/27 02:33:28;;;;;;;;;;;;;;;23.37;54.54;95405.03;10264643;28;2041;-46
2022/08/27 02:38:28;;;;;;;;;;;;;;;23.31;54.82;95400.91;10248027;28;2068;-45
2022/08/27 02:43:30;;;;;;;;;;;;;;;23.22;55.10;95394.78;10250286;28;2188;-49
2022/08/27 02:48:30;;;;;;;;;;;;;;;23.17;55.10;95402.81;10249416;28;1946;-46
2022/08/27 02:53:31;;;;;;;;;;;;;;;23.17;55.19;95400.16;10250594;28;1889;-47
2022/08/27 02:58:34;;;;;;;;;;;;;;;23.15;55.25;95397.81;10249407;28;1960;-45
2022/08/27 03:03:34;;;;;;;;;;;;;;;23.19;55.17;95398.78;10247311;28;1941;-44
2022/08/27 03:08:35;;;;;;;;;;;;;;;23.23;55.39;95399.75;10231219;28;1974;-48
2022/08/27 03:13:36;;;;;;;;;;;;;;;23.26;55.20;95408.97;10239658;28;1997;-45
2022/08/27 03:18:36;;;;;;;;;;;;;;;23.35;54.91;95412.47;10248844;28;2070;-47
2022/08/27 03:23:37;;;;;;;;;;;;;;;23.38;55.04;95417.97;10250980;28;1905;-46
2022/08/27 03:28:37;;;;;;;;;;;;;;;23.38;55.35;95422.47;10243199;28;1965;-48
2022/08/27 03:33:37;;;;;;;;;;;;;;;23.41;55.19;95416.59;10248655;28;1970;-48
2022/08/27 03:38:38;;;;;;;;;;;;;;;23.43;55.45;95425.00;10242363;28;1907;-46
2022/08/27 03:43:39;;;;;;;;;;;;;;;23.40;55.45;95417.66;10249167;28;1861;-47
2022/08/27 03:48:39;;;;;;;;;;;;;;;23.36;55.51;95411.41;10247809;28;2282;-45
2022/08/27 03:53:40;;;;;;;;;;;;;;;23.36;55.70;95414.06;10240295;28;1997;-48
2022/08/27 03:58:41;;;;;;;;;;;;;;;23.36;55.52;95406.91;10241836;28;2109;-45
2022/08/27 04:03:42;;;;;;;;;;;;;;;23.38;55.42;95406.59;10246330;28;1937;-47
2022/08/27 04:08:42;;;;;;;;;;;;;;;23.36;55.46;95411.41;10244694;28;2139;-44
2022/08/27 04:13:43;;;;;;;;;;;;;;;23.36;55.60;95406.13;10246390;28;2176;-50
2022/08/27 04:18:43;;;;;;;;;;;;;;;23.41;55.09;95416.59;10243900;28;1953;-44
2022/08/27 04:23:43;;;;;;;;;;;;;;;23.44;54.82;95421.28;10245774;28;1933;-44
2022/08/27 04:28:44;;;;;;;;;;;;;;;23.46;54.87;95419.09;10243094;28;1981;-48
2022/08/27 04:33:44;;;;;;;;;;;;;;;23.46;54.78;95427.03;10259993;28;1908;-46
2022/08/27 04:38:44;;;;;;;;;;;;;;;23.50;54.87;95429.88;10248246;28;2016;-44
2022/08/27 04:43:51;;;;;;;;;;;;;;;23.51;54.79;95431.44;10258175;28;2010;-46
2022/08/27 04:48:51;;;;;;;;;;;;;;;23.50;54.73;95425.38;10242404;28;2239;-44
2022/08/27 04:53:51;;;;;;;;;;;;;;;23.48;54.53;95419.59;10245664;28;1977;-45
2022/08/27 04:58:52;;;;;;;;;;;;;;;23.48;54.77;95432.81;10243347;28;2013;-47
2022/08/27 05:03:52;;;;;;;;;;;;;;;23.45;54.73;95438.72;10261375;28;1967;-46
2022/08/27 05:08:53;;;;;;;;;;;;;;;23.42;54.74;95439.31;10242082;28;1967;-46
2022/08/27 05:13:53;;;;;;;;;;;;;;;23.36;54.94;95436.00;10239087;28;2161;-49
2022/08/27 05:18:53;;;;;;;;;;;;;;;23.34;55.13;95434.72;10247588;28;1973;-46
2022/08/27 05:23:54;;;;;;;;;;;;;;;23.30;55.33;95441.66;10251751;28;2058;-46
2022/08/27 05:28:54;;;;;;;;;;;;;;;23.29;55.32;95432.16;10252386;28;2015;-45
2022/08/27 05:33:55;;;;;;;;;;;;;;;23.26;55.33;95427.47;10266011;28;1954;-44
2022/08/27 05:38:56;;;;;;;;;;;;;;;23.25;55.31;95428.53;10246941;28;2097;-47
2022/08/27 05:43:57;;;;;;;;;;;;;;;23.30;55.28;95433.72;10243037;28;1917;-48
2022/08/27 05:48:58;;;;;;;;;;;;;;;23.28;55.49;95434.03;10242922;28;1988;-46
2022/08/27 05:54:00;;;;;;;;;;;;;;;23.28;55.29;95433.25;10240201;28;2071;-46
2022/08/27 06:04:20;;;;;;;;;;;;;;;23.26;55.58;95433.56;10240533;28;1960;-47
2022/08/27 06:09:21;;;;;;;;;;;;;;;23.29;55.22;95440.09;10237317;28;1894;-43
2022/08/27 06:14:22;;;;;;;;;;;;;;;23.28;55.36;95439.31;10237508;28;2154;-48
2022/08/27 06:19:22;;;;;;;;;;;;;;;23.31;55.17;95438.72;10245375;28;1957;-46
2022/08/27 06:24:22;;;;;;;;;;;;;;;23.29;55.54;95437.44;10240359;28;1963;-47
2022/08/27 06:29:23;;;;;;;;;;;;;;;23.31;55.46;95433.41;10244399;28;1972;-47
2022/08/27 06:34:24;;;;;;;;;;;;;;;23.31;55.40;95433.41;10250260;28;1840;-45
2022/08/27 06:39:24;;;;;;;;;;;;;;;23.28;55.54;95434.03;10252127;28;1942;-47
2022/08/27 06:44:24;;;;;;;;;;;;;;;23.28;55.43;95441.19;10254943;28;2101;-45
2022/08/27 06:49:25;;;;;;;;;;;;;;;23.28;55.35;95441.19;10252230;28;1941;-46
2022/08/27 06:54:25;;;;;;;;;;;;;;;23.14;55.72;95443.84;10249938;28;1954;-45
2022/08/27 06:59:26;;;;;;;;;;;;;;;23.19;56.03;95445.59;10243697;28;2015;-48
2022/08/27 07:04:26;;;;;;;;;;;;;;;23.24;56.32;95442.84;10242749;28;2150;-46
2022/08/27 07:09:29;;;;;;;;;;;;;;;23.22;56.64;95439.72;10241926;28;2159;-48
2022/08/27 07:14:29;;;;;;;;;;;;;;;23.25;56.51;95442.56;10250226;28;2068;-46
2022/08/27 07:19:31;;;;;;;;;;;;;;;23.25;56.98;95450.47;10249142;28;1918;-48
2022/08/27 07:24:31;;;;;;;;;;;;;;;23.28;56.78;95457.03;10241987;28;1998;-45
2022/08/27 07:29:32;;;;;;;;;;;;;;;23.30;56.45;95454.88;10245307;28;2079;-46
2022/08/27 07:34:32;;;;;;;;;;;;;;;23.31;56.53;95459.06;10245341;28;1914;-47
2022/08/27 07:39:32;;;;;;;;;;;;;;;23.21;56.38;95462.72;10247039;28;2160;-48
2022/08/27 07:44:33;;;;;;;;;;;;;;;23.22;56.83;95466.16;10244337;28;1961;-45
2022/08/27 07:49:34;;;;;;;;;;;;;;;23.26;56.49;95469.78;10248048;28;1949;-45
2022/08/27 07:54:39;;;;;;;;;;;;;;;23.28;56.50;95462.34;10244307;28;1961;-45
2022/08/27 07:59:44;;;;;;;;;;;;;;;23.31;56.60;95473.09;10241436;28;2004;-46
2022/08/27 08:04:44;;;;;;;;;;;;;;;23.37;56.64;95473.78;10249734;28;2231;-46
2022/08/27 08:09:45;;;;;;;;;;;;;;;23.39;56.35;95480.34;10245368;28;1980;-44
2022/08/27 08:14:45;;;;;;;;;;;;;;;23.36;56.27;95482.81;10251306;28;2016;-45
2022/08/27 08:19:47;;;;;;;;;;;;;;;23.37;56.42;95492.31;10241604;28;1937;-48
2022/08/27 08:24:48;;;;;;;;;;;;;;;23.32;55.89;95487.13;10243137;28;1945;-44
2022/08/27 08:29:49;;;;;;;;;;;;;;;23.05;56.09;95495.84;10247971;28;1895;-45
2022/08/27 08:34:50;;;;;;;;;;;;;;;22.78;56.88;95493.22;10241984;28;2155;-43
2022/08/27 08:39:50;;;;;;;;;;;;;;;22.88;57.31;95492.22;10241705;28;2092;-48
2022/08/27 08:44:52;;;;;;;;;;;;;;;22.87;57.83;95490.69;10237548;28;1932;-47
2022/08/27 08:49:54;;;;;;;;;;;;;;;22.85;58.06;95492.84;10244643;28;1954;-46
2022/08/27 08:54:55;;;;;;;;;;;;;;;22.82;57.89;95498.69;10260040;28;2138;-47
2022/08/27 08:59:58;;;;;;;;;;;;;;;22.78;57.89;95492.44;10257578;28;1965;-43
2022/08/27 09:05:00;;;;;;;;;;;;;;;22.77;58.08;95496.94;10258621;28;2132;-52
2022/08/27 09:10:20;;;;;;;;;;;;;;;22.78;58.04;95500.34;10241653;28;1937;-52
2022/08/27 09:15:23;;;;;;;;;;;;;;;22.67;57.88;95503.19;10243727;28;1905;-54
2022/08/27 09:20:24;;;;;;;;;;;;;;;22.57;57.93;95495.41;10253517;28;2088;-55
2022/08/27 09:25:25;;;;;;;;;;;;;;;22.62;57.94;95500.66;10242443;28;2152;-59
2022/08/27 09:30:26;;;;;;;;;;;;;;;22.55;57.94;95505.50;10256737;28;1943;-57
2022/08/27 09:35:37;;;;;;;;;;;;;;;22.73;58.16;95505.75;10241556;28;2095;-59
2022/08/27 09:40:38;;;;;;;;;;;;;;;22.90;57.64;95501.44;10240793;28;1935;-60
2022/08/27 09:45:44;;;;;;;;;;;;;;;22.88;56.85;95500.16;10255805;28;1886;-60
2022/08/27 09:50:47;;;;;;;;;;;;;;;22.80;57.22;95498.19;10241384;28;1950;-59
2022/08/27 09:55:48;;;;;;;;;;;;;;;22.82;57.70;95493.41;10237426;28;2023;-63
2022/08/27 10:00:56;;;;;;;;;;;;;;;22.87;56.94;95485.38;10240403;28;1973;-58
2022/08/27 10:05:56;;;;;;;;;;;;;;;22.90;56.20;95484.78;10263255;28;1911;-61
2022/08/27 10:11:02;;;;;;;;;;;;;;;23.04;56.03;95485.59;10245447;28;1972;-47
2022/08/27 10:16:21;;;;;;;;;;;;;;;23.12;55.66;95483.00;10260223;28;2152;-49
2022/08/27 10:21:23;;;;;;;;;;;;;;;23.08;55.66;95483.91;10248260;28;1964;-52
2022/08/27 10:26:44;;;;;;;;;;;;;;;23.17;55.33;95474.97;10262752;28;2093;-52
2022/08/27 10:32:00;;;;;;;;;;;;;;;23.23;55.36;95476.44;10243234;28;2244;-45
2022/08/27 10:37:15;;;;;;;;;;;;;;;23.37;55.16;95484.38;10248112;28;1993;-44
2022/08/27 10:42:36;;;;;;;;;;;;;;;23.37;55.48;95482.50;10240995;28;1894;-46
2022/08/27 10:47:39;;;;;;;;;;;;;;;23.43;54.82;95483.22;10246938;28;2100;-51
2022/08/27 10:52:42;;;;;;;;;;;;;;;23.43;54.33;95478.69;10250261;28;1902;-45
2022/08/27 10:57:48;;;;;;;;;;;;;;;23.52;54.66;95464.75;10249333;28;1974;-45
2022/08/27 11:02:52;;;;;;;;;;;;;;;23.39;53.86;95467.13;10245221;28;2031;-52
2022/08/27 11:07:53;;;;;;;;;;;;;;;23.54;53.39;95452.78;10249541;28;2106;-44
2022/08/27 11:12:55;;;;;;;;;;;;;;;23.51;53.97;95448.09;10241985;28;2085;-46
2022/08/27 11:18:00;;;;;;;;;;;;;;;23.58;53.61;95451.09;10248967;28;1967;-47
2022/08/27 11:23:16;;;;;;;;;;;;;;;23.57;52.87;95441.63;10249597;28;1870;-55
2022/08/27 11:28:17;;;;;;;;;;;;;;;23.55;53.30;95449.06;10258490;28;1961;-42
2022/08/27 11:33:22;;;;;;;;;;;;;;;23.55;52.72;95441.13;10242166;28;1990;-44
2022/08/27 11:38:40;;;;;;;;;;;;;;;23.53;52.01;95438.00;10247039;28;1997;-47
2022/08/27 11:43:41;;;;;;;;;;;;;;;23.50;52.03;95429.88;10255047;28;1903;-49
2022/08/27 11:48:42;;;;;;;;;;;;;;;23.43;51.61;95436.34;10243391;28;2052;-47
2022/08/27 11:53:53;;;;;;;;;;;;;;;23.55;51.71;95427.13;10244609;28;1942;-46
2022/08/27 11:58:53;;;;;;;;;;;;;;;23.67;51.72;95430.78;10242811;28;1985;-48
2022/08/27 12:04:05;;;;;;;;;;;;;;;23.63;51.18;95418.47;10245666;28;1913;-44
2022/08/27 12:09:05;;;;;;;;;;;;;;;23.67;51.01;95417.56;10246997;28;1910;-45
2022/08/27 12:14:12;;;;;;;;;;;;;;;23.70;50.90;95408.25;10253461;28;2083;-49
2022/08/27 12:19:15;;;;;;;;;;;;;;;23.73;50.81;95412.91;10247136;28;2006;-46
2022/08/27 12:24:34;;;;;;;;;;;;;;;23.72;50.78;95398.13;10240907;28;1980;-49
2022/08/27 12:29:39;;;;;;;;;;;;;;;23.80;51.20;95392.88;10241736;28;1960;-49
2022/08/27 12:35:00;;;;;;;;;;;;;;;23.86;50.66;95386.41;10260252;28;2108;-46
2022/08/27 12:40:01;;;;;;;;;;;;;;;23.90;50.88;95375.97;10243061;28;1980;-45
2022/08/27 12:45:02;;;;;;;;;;;;;;;23.87;51.26;95382.66;10243775;28;1969;-49
2022/08/27 12:50:03;;;;;;;;;;;;;;;23.88;51.15;95389.53;10239519;28;1910;-51
2022/08/27 12:55:03;;;;;;;;;;;;;;;23.90;51.54;95387.34;10242327;28;1897;-47
2022/08/27 13:00:06;;;;;;;;;;;;;;;23.93;51.69;95381.44;10241402;28;1937;-44
2022/08/27 13:05:08;;;;;;;;;;;;;;;24.02;51.60;95376.19;10241002;28;2076;-49
2022/08/27 13:10:13;;;;;;;;;;;;;;;24.03;51.75;95375.09;10243839;28;1929;-49
2022/08/27 13:15:14;;;;;;;;;;;;;;;24.01;51.47;95364.81;10234816;28;1942;-44
2022/08/27 13:20:15;;;;;;;;;;;;;;;23.97;51.50;95360.44;10236740;28;1999;-45
2022/08/27 13:25:26;;;;;;;;;;;;;;;23.99;51.22;95350.31;10243114;28;1945;-46
2022/08/27 13:30:27;;;;;;;;;;;;;;;23.99;50.94;95345.81;10240927;28;1961;-50
2022/08/27 13:35:31;;;;;;;;;;;;;;;24.08;51.37;95351.19;10244076;28;2146;-51
2022/08/27 13:40:35;;;;;;;;;;;;;;;24.10;50.95;95344.50;10237083;28;1919;-46
2022/08/27 13:45:36;;;;;;;;;;;;;;;24.06;50.74;95353.34;10261402;28;1906;-51
2022/08/27 13:50:37;;;;;;;;;;;;;;;24.10;50.23;95355.09;10258683;28;1912;-47
2022/08/27 13:55:44;;;;;;;;;;;;;;;24.02;49.79;95358.44;10244909;28;1879;-47
2022/08/27 14:00:44;;;;;;;;;;;;;;;24.03;49.22;95359.22;10255135;28;1989;-46
2022/08/27 14:05:54;;;;;;;;;;;;;;;24.01;49.40;95364.03;10259311;28;1808;-48
2022/08/27 14:11:00;;;;;;;;;;;;;;;24.08;49.99;95365.19;10259582;28;1948;-50
2022/08/27 14:16:10;;;;;;;;;;;;;;;24.07;50.05;95366.28;10240008;28;1933;-49
2022/08/27 14:21:10;;;;;;;;;;;;;;;24.10;50.11;95365.69;10244085;28;1985;-46
2022/08/27 14:26:10;;;;;;;;;;;;;;;24.10;49.83;95362.25;10247576;28;2091;-47
2022/08/27 14:31:11;;;;;;;;;;;;;;;24.16;50.20;95358.38;10265521;28;1917;-44
2022/08/27 14:36:12;;;;;;;;;;;;;;;24.13;49.85;95359.00;10244976;28;1933;-45
2022/08/27 14:41:12;;;;;;;;;;;;;;;24.06;49.39;95348.84;10247435;28;1962;-49
2022/08/27 14:46:25;;;;;;;;;;;;;;;24.03;49.48;95348.63;10251486;28;2081;-46
2022/08/27 14:51:26;;;;;;;;;;;;;;;24.02;49.22;95342.56;10249321;28;2208;-45
2022/08/27 14:56:26;;;;;;;;;;;;;;;24.04;49.08;95334.34;10248144;28;1968;-46
2022/08/27 15:01:27;;;;;;;;;;;;;;;24.01;48.87;95341.00;10249738;28;1987;-45
2022/08/27 15:06:27;;;;;;;;;;;;;;;24.05;49.08;95326.09;10252337;28;1945;-45
2022/08/27 15:11:28;;;;;;;;;;;;;;;24.00;48.27;95318.25;10240614;28;2219;-48
2022/08/27 15:16:33;;;;;;;;;;;;;;;24.03;48.54;95327.44;10263344;28;1958;-46
2022/08/27 15:21:34;;;;;;;;;;;;;;;24.04;48.53;95321.88;10244747;28;1946;-45
2022/08/27 15:26:35;;;;;;;;;;;;;;;24.03;48.56;95319.50;10248487;28;2023;-46
2022/08/27 15:31:36;;;;;;;;;;;;;;;24.09;48.90;95324.38;10243138;28;1819;-51
2022/08/27 15:36:36;;;;;;;;;;;;;;;24.14;48.75;95326.91;10242233;28;1969;-46
2022/08/27 15:41:36;;;;;;;;;;;;;;;24.14;48.67;95329.56;10239755;28;2150;-46
2022/08/27 15:46:37;;;;;;;;;;;;;;;24.09;48.72;95331.56;10252264;28;2073;-47
2022/08/27 15:51:37;;;;;;;;;;;;;;;24.09;49.69;95345.56;10240555;28;2029;-48
2022/08/27 15:56:38;;;;;;;;;;;;;;;24.06;50.05;95343.53;10250013;28;2053;-46
2022/08/27 16:01:39;;;;;;;;;;;;;;;24.06;50.34;95348.84;10237236;28;2063;-45
2022/08/27 16:06:39;;;;;;;;;;;;;;;24.07;50.68;95350.38;10234531;28;2129;-45
2022/08/27 16:11:40;;;;;;;;;;;;;;;24.06;50.92;95350.69;10236097;28;1966;-45
2022/08/27 16:16:40;;;;;;;;;;;;;;;24.04;50.85;95350.22;10230903;28;2178;-48
2022/08/27 16:21:40;;;;;;;;;;;;;;;24.07;50.87;95352.28;10250213;28;1897;-48
2022/08/27 16:26:40;;;;;;;;;;;;;;;24.12;50.85;95347.63;10240046;28;1985;-48
2022/08/27 16:31:41;;;;;;;;;;;;;;;24.15;51.03;95347.00;10240410;28;1796;-46
2022/08/27 16:36:41;;;;;;;;;;;;;;;24.14;51.26;95344.66;10249912;28;2045;-48
2022/08/27 16:41:42;;;;;;;;;;;;;;;24.14;51.21;95345.44;10239127;28;2159;-48
2022/08/27 16:46:42;;;;;;;;;;;;;;;24.14;51.09;95344.66;10227913;28;1954;-47
2022/08/27 16:51:43;;;;;;;;;;;;;;;24.15;51.30;95351.53;10238978;28;1925;-48
2022/08/27 16:56:43;;;;;;;;;;;;;;;24.15;51.20;95357.59;10236125;28;2071;-47
2022/08/27 17:01:43;;;;;;;;;;;;;;;24.17;51.17;95365.25;10243082;28;1873;-50
2022/08/27 17:06:43;;;;;;;;;;;;;;;24.14;51.26;95363.97;10247724;28;2119;-45
2022/08/27 17:11:44;;;;;;;;;;;;;;;24.12;50.84;95371.44;10234760;28;1933;-45
2022/08/27 17:16:44;;;;;;;;;;;;;;;24.10;50.66;95381.56;10251002;28;2033;-46
2022/08/27 17:21:44;;;;;;;;;;;;;;;24.09;50.38;95372.03;10234299;28;1981;-47
2022/08/27 17:26:45;;;;;;;;;;;;;;;24.12;50.76;95379.41;10251269;28;1925;-48
2022/08/27 17:31:45;;;;;;;;;;;;;;;24.17;51.01;95387.19;10235010;28;2036;-47
2022/08/27 17:36:45;;;;;;;;;;;;;;;24.18;51.65;95388.78;10231843;28;1991;-50
2022/08/27 17:41:46;;;;;;;;;;;;;;;24.20;51.99;95385.81;10237918;28;1903;-48
2022/08/27 17:46:48;;;;;;;;;;;;;;;24.23;52.08;95388.63;10233630;28;1898;-47
2022/08/27 17:51:48;;;;;;;;;;;;;;;24.23;52.51;95388.63;10246424;28;1981;-46
2022/08/27 17:56:49;;;;;;;;;;;;;;;24.28;51.89;95400.19;10241922;28;2056;-47
2022/08/27 18:01:49;;;;;;;;;;;;;;;24.29;52.02;95409.69;10250615;28;2092;-48
2022/08/27 18:06:49;;;;;;;;;;;;;;;24.32;51.93;95414.38;10235841;28;2119;-45
2022/08/27 18:11:50;;;;;;;;;;;;;;;24.32;52.02;95411.75;10236067;28;1906;-46
2022/08/27 18:16:51;;;;;;;;;;;;;;;24.33;52.11;95421.25;10238978;28;1984;-46
2022/08/27 18:21:52;;;;;;;;;;;;;;;24.32;51.93;95430.28;10235253;28;2008;-47
2022/08/27 18:26:52;;;;;;;;;;;;;;;24.33;51.91;95445.88;10242840;28;1954;-47
2022/08/27 18:31:53;;;;;;;;;;;;;;;24.32;51.90;95441.63;10241407;28;1981;-46
2022/08/27 18:36:53;;;;;;;;;;;;;;;24.33;52.13;95437.91;10257285;28;2105;-47
2022/08/27 18:41:53;;;;;;;;;;;;;;;24.33;52.24;95453.81;10242302;28;2026;-45
2022/08/27 18:46:53;;;;;;;;;;;;;;;24.34;51.95;95462.56;10258385;28;1958;-46
2022/08/27 18:51:54;;;;;;;;;;;;;;;24.34;51.97;95459.91;10244705;28;1902;-48
2022/08/27 18:56:54;;;;;;;;;;;;;;;24.34;52.12;95465.97;10240121;28;1971;-46
2022/08/27 19:01:54;;;;;;;;;;;;;;;24.33;51.82;95469.72;10244099;28;1947;-48
2022/08/27 19:06:55;;;;;;;;;;;;;;;24.34;52.07;95481.84;10241156;28;2166;-46
2022/08/27 19:11:55;;;;;;;;;;;;;;;24.34;51.92;95481.09;10240223;28;2025;-49
2022/08/27 19:16:55;;;;;;;;;;;;;;;24.35;52.14;95487.94;10217485;28;2267;-48
2022/08/27 19:21:58;;;;;;;;;;;;;;;24.34;52.00;95489.03;10237644;28;2140;-48
2022/08/27 19:26:58;;;;;;;;;;;;;;;24.34;52.33;95486.41;10241756;28;1988;-46
2022/08/27 19:31:58;;;;;;;;;;;;;;;24.34;52.31;95483.75;10239647;28;1933;-45
2022/08/27 19:36:59;;;;;;;;;;;;;;;24.35;52.29;95501.19;10244451;28;1974;-50
2022/08/27 19:41:59;;;;;;;;;;;;;;;24.35;52.05;95503.84;10251352;28;2053;-45
2022/08/27 19:46:59;;;;;;;;;;;;;;;24.35;52.00;95498.53;10240974;28;2104;-47
2022/08/27 19:51:59;;;;;;;;;;;;;;;24.35;52.28;95509.13;10241127;28;3072;-47
2022/08/27 19:57:00;;;;;;;;;;;;;;;24.35;51.97;95509.91;10238891;28;2151;-47
2022/08/27 20:02:06;;;;;;;;;;;;;;;24.35;52.16;95511.78;10239368;28;1938;-46
2022/08/27 20:07:07;;;;;;;;;;;;;;;24.35;51.83;95506.47;10239804;28;1981;-46
2022/08/27 20:12:07;;;;;;;;;;;;;;;24.35;51.72;95511.78;10239415;28;1964;-48
2022/08/27 20:17:16;;;;;;;;;;;;;;;24.35;51.63;95506.47;10238889;28;2204;-49
2022/08/27 20:22:17;;;;;;;;;;;;;;;24.35;51.58;95515.22;10236685;28;1992;-45
2022/08/27 20:27:17;;;;;;;;;;;;;;;24.35;51.79;95511.78;10240095;28;1934;-46
2022/08/27 20:32:19;;;;;;;;;;;;;;;24.35;51.82;95515.22;10234129;28;2016;-46
2022/08/27 20:37:19;;;;;;;;;;;;;;;24.35;51.66;95517.09;10235809;28;1918;-45
2022/08/27 20:42:20;;;;;;;;;;;;;;;24.35;51.68;95525.03;10238744;28;1913;-48
2022/08/27 20:47:20;;;;;;;;;;;;;;;24.35;51.48;95517.09;10236728;28;2060;-47
2022/08/27 20:52:20;;;;;;;;;;;;;;;24.35;51.40;95535.63;10234760;28;2092;-49
2022/08/27 20:57:21;;;;;;;;;;;;;;;24.35;51.58;95532.97;10241630;28;1953;-49
2022/08/27 21:02:22;;;;;;;;;;;;;;;24.35;51.65;95535.63;10235097;28;2180;-49
2022/08/27 21:07:23;;;;;;;;;;;;;;;24.36;51.52;95531.91;10242328;28;2070;-46
2022/08/27 21:12:27;;;;;;;;;;;;;;;24.36;51.29;95532.66;10234693;28;2012;-48
2022/08/27 21:17:27;;;;;;;;;;;;;;;24.34;51.26;95532.19;10236116;28;1898;-50
2022/08/27 21:22:27;;;;;;;;;;;;;;;24.35;51.25;95546.22;10236587;28;2046;-45
2022/08/27 21:27:28;;;;;;;;;;;;;;;24.37;51.19;95546.69;10241552;28;1938;-50
2022/08/27 21:32:28;;;;;;;;;;;;;;;24.36;51.17;95551.22;10243968;28;2032;-45
2022/08/27 21:37:28;;;;;;;;;;;;;;;24.37;51.06;95554.66;10244842;28;1902;-49
2022/08/27 21:42:28;;;;;;;;;;;;;;;24.36;51.12;95553.09;10241490;28;1920;-49
2022/08/27 21:47:29;;;;;;;;;;;;;;;24.36;51.25;95559.16;10242672;28;1995;-49
2022/08/27 21:52:31;;;;;;;;;;;;;;;24.36;51.25;95553.09;10241082;28;2097;-46
2022/08/27 21:57:31;;;;;;;;;;;;;;;24.36;51.00;95563.69;10244013;28;2068;-47
2022/08/27 22:02:32;;;;;;;;;;;;;;;24.36;50.91;95564.47;10247836;28;1953;-48
2022/08/27 22:07:32;;;;;;;;;;;;;;;24.35;51.12;95562.91;10247746;28;2129;-47
2022/08/27 22:12:34;;;;;;;;;;;;;;;24.36;51.12;95569.00;10252008;28;2095;-49
2022/08/27 22:17:44;;;;;;;;;;;;;;;24.37;50.77;95570.53;10254968;28;2144;-45
2022/08/27 22:22:44;;;;;;;;;;;;;;;24.37;50.95;95570.53;10249037;28;1913;-46
2022/08/27 22:27:44;;;;;;;;;;;;;;;24.36;51.19;95579.59;10269972;28;1958;-47
2022/08/27 22:32:45;;;;;;;;;;;;;;;24.37;51.08;95575.84;10273978;28;1904;-46
2022/08/27 22:37:46;;;;;;;;;;;;;;;24.37;50.83;95573.19;10250336;28;1982;-47
2022/08/27 22:42:46;;;;;;;;;;;;;;;24.36;51.16;95572.41;10250033;28;2041;-46
2022/08/27 22:47:47;;;;;;;;;;;;;;;24.37;50.89;95570.53;10249993;28;2144;-47
2022/08/27 22:52:48;;;;;;;;;;;;;;;24.37;50.95;95565.25;10249191;28;1972;-45
2022/08/27 22:57:49;;;;;;;;;;;;;;;24.37;51.15;95565.25;10250734;28;2005;-48
2022/08/27 23:02:49;;;;;;;;;;;;;;;24.37;50.74;95559.94;10252406;28;2288;-49
2022/08/27 23:07:50;;;;;;;;;;;;;;;24.37;50.98;95559.94;10248185;28;1977;-47
2022/08/27 23:12:52;;;;;;;;;;;;;;;24.37;51.02;95563.38;10245199;28;1903;-47
2022/08/27 23:17:53;;;;;;;;;;;;;;;24.36;51.02;95551.22;10240359;28;2085;-45
2022/08/27 23:22:53;;;;;;;;;;;;;;;24.30;51.17;95549.00;10248404;28;1879;-49
2022/08/27 23:27:54;;;;;;;;;;;;;;;24.23;51.44;95547.53;10249070;28;1868;-46
2022/08/27 23:32:54;;;;;;;;;;;;;;;24.17;51.89;95551.41;10249667;28;1808;-50
2022/08/27 23:37:54;;;;;;;;;;;;;;;24.12;52.17;95559.47;10246900;28;2041;-52
2022/08/27 23:42:55;;;;;;;;;;;;;;;24.03;52.51;95555.97;10245403;28;1958;-45
2022/08/27 23:47:55;;;;;;;;;;;;;;;23.99;52.57;95552.31;10246007;28;2131;-46
2022/08/27 23:52:55;;;;;;;;;;;;;;;23.97;52.72;95557.13;10245360;28;2073;-49
2022/08/27 23:57:59;;;;;;;;;;;;;;;23.94;52.75;95551.66;10245170;28;2081;-46
